sensor_id;sensor_type;location;lat;lon;timestamp;P1;durP1;ratioP1;P2;durP2;ratioP2
68386;SDS011;55338;43.062;25.624;2022-12-29T00:01:30;27.80;;;11.00;;
68386;SDS011;55338;43.062;25.624;2022-12-29T00:03:56;23.55;;;11.95;;
68386;SDS011;55338;43.062;25.624;2022-12-29T00:06:22;29.10;;;11.20;;
68386;SDS011;55338;43.062;25.624;2022-12-29T00:08:49;27.95;;;11.50;;
68386;SDS011;55338;43.062;25.624;2022-12-29T00:11:16;22.98;;;11.05;;
68386;SDS011;55338;43.062;25.624;2022-12-29T00:13:46;25.58;;;10.63;;
68386;SDS011;55338;43.062;25.624;2022-12-29T00:16:31;24.20;;;10.77;;
68386;SDS011;55338;43.062;25.624;2022-12-29T00:18:57;28.83;;;10.97;;
68386;SDS011;55338;43.062;25.624;2022-12-29T00:21:24;25.80;;;11.20;;
68386;SDS011;55338;43.062;25.624;2022-12-29T00:24:26;24.83;;;11.18;;
68386;SDS011;55338;43.062;25.624;2022-12-29T00:26:57;22.42;;;9.88;;
68386;SDS011;55338;43.062;25.624;2022-12-29T00:29:45;17.95;;;9.13;;
68386;SDS011;55338;43.062;25.624;2022-12-29T00:32:30;23.20;;;9.57;;
68386;SDS011;55338;43.062;25.624;2022-12-29T00:35:18;20.25;;;10.38;;
68386;SDS011;55338;43.062;25.624;2022-12-29T00:37:50;24.02;;;9.70;;
68386;SDS011;55338;43.062;25.624;2022-12-29T00:40:36;25.73;;;10.27;;
68386;SDS011;55338;43.062;25.624;2022-12-29T00:43:20;28.63;;;10.95;;
68386;SDS011;55338;43.062;25.624;2022-12-29T00:46:04;24.90;;;11.13;;
68386;SDS011;55338;43.062;25.624;2022-12-29T00:48:30;27.33;;;11.55;;
68386;SDS011;55338;43.062;25.624;2022-12-29T00:51:14;25.15;;;9.27;;
68386;SDS011;55338;43.062;25.624;2022-12-29T00:53:39;18.47;;;8.23;;
68386;SDS011;55338;43.062;25.624;2022-12-29T00:56:05;19.00;;;9.68;;
68386;SDS011;55338;43.062;25.624;2022-12-29T00:58:32;17.30;;;8.90;;
68386;SDS011;55338;43.062;25.624;2022-12-29T01:01:02;20.13;;;9.87;;
68386;SDS011;55338;43.062;25.624;2022-12-29T01:03:28;21.80;;;9.20;;
68386;SDS011;55338;43.062;25.624;2022-12-29T01:05:54;16.80;;;8.17;;
68386;SDS011;55338;43.062;25.624;2022-12-29T01:08:19;16.83;;;7.63;;
68386;SDS011;55338;43.062;25.624;2022-12-29T01:10:45;19.08;;;9.50;;
68386;SDS011;55338;43.062;25.624;2022-12-29T01:13:12;20.25;;;10.20;;
68386;SDS011;55338;43.062;25.624;2022-12-29T01:15:37;19.55;;;9.20;;
68386;SDS011;55338;43.062;25.624;2022-12-29T01:18:03;21.47;;;9.73;;
68386;SDS011;55338;43.062;25.624;2022-12-29T01:20:29;23.23;;;8.60;;
68386;SDS011;55338;43.062;25.624;2022-12-29T01:22:55;25.97;;;8.70;;
68386;SDS011;55338;43.062;25.624;2022-12-29T01:25:20;18.30;;;7.65;;
68386;SDS011;55338;43.062;25.624;2022-12-29T01:27:46;18.80;;;8.30;;
68386;SDS011;55338;43.062;25.624;2022-12-29T01:30:12;17.10;;;8.15;;
68386;SDS011;55338;43.062;25.624;2022-12-29T01:32:37;21.63;;;8.57;;
68386;SDS011;55338;43.062;25.624;2022-12-29T01:35:03;20.45;;;9.30;;
68386;SDS011;55338;43.062;25.624;2022-12-29T01:37:29;21.33;;;10.07;;
68386;SDS011;55338;43.062;25.624;2022-12-29T01:39:55;18.80;;;8.80;;
68386;SDS011;55338;43.062;25.624;2022-12-29T01:42:22;19.80;;;9.23;;
68386;SDS011;55338;43.062;25.624;2022-12-29T01:44:54;20.75;;;9.23;;
68386;SDS011;55338;43.062;25.624;2022-12-29T01:47:32;22.67;;;9.07;;
68386;SDS011;55338;43.062;25.624;2022-12-29T01:50:29;22.65;;;8.82;;
68386;SDS011;55338;43.062;25.624;2022-12-29T01:53:13;27.83;;;8.68;;
68386;SDS011;55338;43.062;25.624;2022-12-29T01:56:01;18.83;;;8.33;;
68386;SDS011;55338;43.062;25.624;2022-12-29T01:58:32;22.50;;;8.70;;
68386;SDS011;55338;43.062;25.624;2022-12-29T02:01:02;20.92;;;8.85;;
68386;SDS011;55338;43.062;25.624;2022-12-29T02:03:28;25.65;;;8.82;;
68386;SDS011;55338;43.062;25.624;2022-12-29T02:06:17;20.17;;;9.63;;
68386;SDS011;55338;43.062;25.624;2022-12-29T02:08:45;18.50;;;8.30;;
68386;SDS011;55338;43.062;25.624;2022-12-29T02:11:12;22.73;;;9.45;;
68386;SDS011;55338;43.062;25.624;2022-12-29T02:13:38;21.75;;;8.60;;
68386;SDS011;55338;43.062;25.624;2022-12-29T02:21:46;17.35;;;8.60;;
68386;SDS011;55338;43.062;25.624;2022-12-29T02:30:12;19.00;;;7.00;;
68386;SDS011;55338;43.062;25.624;2022-12-29T02:32:45;20.27;;;7.90;;
68386;SDS011;55338;43.062;25.624;2022-12-29T02:35:35;17.83;;;8.18;;
68386;SDS011;55338;43.062;25.624;2022-12-29T02:38:47;19.02;;;8.27;;
68386;SDS011;55338;43.062;25.624;2022-12-29T02:41:31;15.43;;;7.47;;
68386;SDS011;55338;43.062;25.624;2022-12-29T02:44:16;19.83;;;7.97;;
68386;SDS011;55338;43.062;25.624;2022-12-29T02:47:03;16.23;;;8.00;;
68386;SDS011;55338;43.062;25.624;2022-12-29T02:55:31;16.65;;;7.35;;
68386;SDS011;55338;43.062;25.624;2022-12-29T03:03:48;30.55;;;7.82;;
68386;SDS011;55338;43.062;25.624;2022-12-29T03:12:05;17.38;;;7.63;;
68386;SDS011;55338;43.062;25.624;2022-12-29T03:18:05;21.17;;;9.35;;
68386;SDS011;55338;43.062;25.624;2022-12-29T03:20:43;22.83;;;10.13;;
68386;SDS011;55338;43.062;25.624;2022-12-29T03:23:15;20.23;;;9.47;;
68386;SDS011;55338;43.062;25.624;2022-12-29T03:25:45;21.20;;;9.75;;
68386;SDS011;55338;43.062;25.624;2022-12-29T03:28:17;25.25;;;10.57;;
68386;SDS011;55338;43.062;25.624;2022-12-29T03:30:47;25.75;;;10.25;;
68386;SDS011;55338;43.062;25.624;2022-12-29T03:33:14;19.00;;;9.60;;
68386;SDS011;55338;43.062;25.624;2022-12-29T03:35:44;31.23;;;11.40;;
68386;SDS011;55338;43.062;25.624;2022-12-29T03:40:50;24.98;;;11.25;;
68386;SDS011;55338;43.062;25.624;2022-12-29T03:43:19;24.67;;;11.20;;
68386;SDS011;55338;43.062;25.624;2022-12-29T03:45:45;26.10;;;12.37;;
68386;SDS011;55338;43.062;25.624;2022-12-29T03:48:10;25.10;;;11.30;;
68386;SDS011;55338;43.062;25.624;2022-12-29T03:50:36;26.83;;;11.82;;
68386;SDS011;55338;43.062;25.624;2022-12-29T03:53:02;23.90;;;11.50;;
68386;SDS011;55338;43.062;25.624;2022-12-29T03:55:28;27.10;;;12.27;;
68386;SDS011;55338;43.062;25.624;2022-12-29T03:57:53;28.27;;;12.10;;
68386;SDS011;55338;43.062;25.624;2022-12-29T04:00:19;23.23;;;11.47;;
68386;SDS011;55338;43.062;25.624;2022-12-29T04:02:45;25.85;;;11.52;;
68386;SDS011;55338;43.062;25.624;2022-12-29T04:05:10;19.23;;;10.27;;
68386;SDS011;55338;43.062;25.624;2022-12-29T04:07:36;24.58;;;10.05;;
68386;SDS011;55338;43.062;25.624;2022-12-29T04:10:02;26.87;;;11.60;;
68386;SDS011;55338;43.062;25.624;2022-12-29T04:12:28;24.90;;;11.23;;
68386;SDS011;55338;43.062;25.624;2022-12-29T04:14:54;27.00;;;11.75;;
68386;SDS011;55338;43.062;25.624;2022-12-29T04:17:19;26.83;;;11.90;;
68386;SDS011;55338;43.062;25.624;2022-12-29T04:19:45;24.08;;;12.18;;
68386;SDS011;55338;43.062;25.624;2022-12-29T04:22:11;26.53;;;11.60;;
68386;SDS011;55338;43.062;25.624;2022-12-29T04:24:37;23.45;;;11.55;;
68386;SDS011;55338;43.062;25.624;2022-12-29T04:27:02;26.47;;;10.97;;
68386;SDS011;55338;43.062;25.624;2022-12-29T04:29:28;26.38;;;10.95;;
68386;SDS011;55338;43.062;25.624;2022-12-29T04:31:54;25.90;;;11.65;;
68386;SDS011;55338;43.062;25.624;2022-12-29T04:34:20;29.20;;;11.80;;
68386;SDS011;55338;43.062;25.624;2022-12-29T04:36:45;22.50;;;9.95;;
68386;SDS011;55338;43.062;25.624;2022-12-29T04:39:11;23.70;;;10.43;;
68386;SDS011;55338;43.062;25.624;2022-12-29T04:41:37;23.95;;;10.45;;
68386;SDS011;55338;43.062;25.624;2022-12-29T04:44:03;21.35;;;10.15;;
68386;SDS011;55338;43.062;25.624;2022-12-29T04:46:29;23.43;;;10.13;;
68386;SDS011;55338;43.062;25.624;2022-12-29T04:48:55;22.60;;;9.95;;
68386;SDS011;55338;43.062;25.624;2022-12-29T04:51:20;21.20;;;9.33;;
68386;SDS011;55338;43.062;25.624;2022-12-29T04:53:46;24.45;;;9.65;;
68386;SDS011;55338;43.062;25.624;2022-12-29T04:56:12;20.63;;;9.70;;
68386;SDS011;55338;43.062;25.624;2022-12-29T04:58:37;24.38;;;10.43;;
68386;SDS011;55338;43.062;25.624;2022-12-29T05:01:03;22.20;;;9.40;;
68386;SDS011;55338;43.062;25.624;2022-12-29T05:03:29;23.85;;;10.00;;
68386;SDS011;55338;43.062;25.624;2022-12-29T05:05:55;22.10;;;9.87;;
68386;SDS011;55338;43.062;25.624;2022-12-29T05:08:22;24.63;;;10.05;;
68386;SDS011;55338;43.062;25.624;2022-12-29T05:10:50;26.80;;;10.05;;
68386;SDS011;55338;43.062;25.624;2022-12-29T05:13:16;27.08;;;9.98;;
68386;SDS011;55338;43.062;25.624;2022-12-29T05:15:47;25.60;;;10.43;;
68386;SDS011;55338;43.062;25.624;2022-12-29T05:18:15;22.08;;;9.15;;
68386;SDS011;55338;43.062;25.624;2022-12-29T05:20:41;23.38;;;9.55;;
68386;SDS011;55338;43.062;25.624;2022-12-29T05:23:06;22.05;;;10.35;;
68386;SDS011;55338;43.062;25.624;2022-12-29T05:25:32;25.93;;;10.10;;
68386;SDS011;55338;43.062;25.624;2022-12-29T05:27:58;21.90;;;9.27;;
68386;SDS011;55338;43.062;25.624;2022-12-29T05:30:24;24.23;;;9.50;;
68386;SDS011;55338;43.062;25.624;2022-12-29T05:32:49;18.52;;;8.05;;
68386;SDS011;55338;43.062;25.624;2022-12-29T05:35:15;20.03;;;9.43;;
68386;SDS011;55338;43.062;25.624;2022-12-29T05:37:41;30.10;;;9.45;;
68386;SDS011;55338;43.062;25.624;2022-12-29T05:40:07;20.90;;;9.27;;
68386;SDS011;55338;43.062;25.624;2022-12-29T05:42:33;24.55;;;9.07;;
68386;SDS011;55338;43.062;25.624;2022-12-29T05:44:58;25.02;;;9.25;;
68386;SDS011;55338;43.062;25.624;2022-12-29T05:47:24;20.02;;;9.15;;
68386;SDS011;55338;43.062;25.624;2022-12-29T05:49:50;21.52;;;9.18;;
68386;SDS011;55338;43.062;25.624;2022-12-29T05:52:16;21.80;;;9.88;;
68386;SDS011;55338;43.062;25.624;2022-12-29T05:54:42;27.17;;;10.73;;
68386;SDS011;55338;43.062;25.624;2022-12-29T05:57:08;29.63;;;11.07;;
68386;SDS011;55338;43.062;25.624;2022-12-29T05:59:45;23.65;;;10.10;;
68386;SDS011;55338;43.062;25.624;2022-12-29T06:02:10;16.77;;;8.25;;
68386;SDS011;55338;43.062;25.624;2022-12-29T06:04:36;24.60;;;8.53;;
68386;SDS011;55338;43.062;25.624;2022-12-29T06:07:02;24.35;;;9.25;;
68386;SDS011;55338;43.062;25.624;2022-12-29T06:09:28;30.80;;;9.33;;
68386;SDS011;55338;43.062;25.624;2022-12-29T06:11:54;25.67;;;9.73;;
68386;SDS011;55338;43.062;25.624;2022-12-29T06:14:20;24.27;;;8.43;;
68386;SDS011;55338;43.062;25.624;2022-12-29T06:16:45;22.27;;;9.03;;
68386;SDS011;55338;43.062;25.624;2022-12-29T06:19:11;26.58;;;10.13;;
68386;SDS011;55338;43.062;25.624;2022-12-29T06:21:37;26.03;;;9.57;;
68386;SDS011;55338;43.062;25.624;2022-12-29T06:24:03;24.52;;;9.52;;
68386;SDS011;55338;43.062;25.624;2022-12-29T06:26:29;31.10;;;10.10;;
68386;SDS011;55338;43.062;25.624;2022-12-29T06:28:55;23.83;;;10.63;;
68386;SDS011;55338;43.062;25.624;2022-12-29T06:31:21;29.20;;;10.20;;
68386;SDS011;55338;43.062;25.624;2022-12-29T06:33:47;30.63;;;11.02;;
68386;SDS011;55338;43.062;25.624;2022-12-29T06:36:13;25.63;;;10.45;;
68386;SDS011;55338;43.062;25.624;2022-12-29T06:38:38;23.53;;;10.57;;
68386;SDS011;55338;43.062;25.624;2022-12-29T06:41:04;23.65;;;11.02;;
68386;SDS011;55338;43.062;25.624;2022-12-29T06:43:30;26.60;;;10.73;;
68386;SDS011;55338;43.062;25.624;2022-12-29T06:45:57;24.25;;;10.48;;
68386;SDS011;55338;43.062;25.624;2022-12-29T06:48:23;22.77;;;9.98;;
68386;SDS011;55338;43.062;25.624;2022-12-29T06:50:49;24.38;;;11.20;;
68386;SDS011;55338;43.062;25.624;2022-12-29T06:53:15;42.87;;;19.27;;
68386;SDS011;55338;43.062;25.624;2022-12-29T06:55:42;98.45;;;43.28;;
68386;SDS011;55338;43.062;25.624;2022-12-29T06:58:08;101.13;;;47.80;;
68386;SDS011;55338;43.062;25.624;2022-12-29T07:00:34;189.63;;;81.63;;
68386;SDS011;55338;43.062;25.624;2022-12-29T07:03:00;103.18;;;47.08;;
68386;SDS011;55338;43.062;25.624;2022-12-29T07:05:26;68.88;;;30.95;;
68386;SDS011;55338;43.062;25.624;2022-12-29T07:07:53;26.40;;;13.27;;
68386;SDS011;55338;43.062;25.624;2022-12-29T07:10:19;21.08;;;10.00;;
68386;SDS011;55338;43.062;25.624;2022-12-29T07:12:45;33.00;;;13.70;;
68386;SDS011;55338;43.062;25.624;2022-12-29T07:15:11;24.40;;;11.65;;
68386;SDS011;55338;43.062;25.624;2022-12-29T07:17:37;25.85;;;11.43;;
68386;SDS011;55338;43.062;25.624;2022-12-29T07:20:03;27.33;;;11.60;;
68386;SDS011;55338;43.062;25.624;2022-12-29T07:22:30;27.60;;;13.05;;
68386;SDS011;55338;43.062;25.624;2022-12-29T07:24:56;44.17;;;16.60;;
68386;SDS011;55338;43.062;25.624;2022-12-29T07:27:21;31.83;;;15.17;;
68386;SDS011;55338;43.062;25.624;2022-12-29T07:29:47;33.50;;;14.50;;
68386;SDS011;55338;43.062;25.624;2022-12-29T07:32:13;25.00;;;12.25;;
68386;SDS011;55338;43.062;25.624;2022-12-29T07:34:39;28.43;;;14.63;;
68386;SDS011;55338;43.062;25.624;2022-12-29T07:37:05;29.95;;;13.73;;
68386;SDS011;55338;43.062;25.624;2022-12-29T07:39:31;22.87;;;12.27;;
68386;SDS011;55338;43.062;25.624;2022-12-29T07:41:57;25.00;;;11.13;;
68386;SDS011;55338;43.062;25.624;2022-12-29T07:44:23;28.15;;;13.30;;
68386;SDS011;55338;43.062;25.624;2022-12-29T07:46:49;25.97;;;12.13;;
68386;SDS011;55338;43.062;25.624;2022-12-29T07:49:18;29.33;;;14.70;;
68386;SDS011;55338;43.062;25.624;2022-12-29T07:51:44;20.08;;;11.05;;
68386;SDS011;55338;43.062;25.624;2022-12-29T07:54:09;16.67;;;8.80;;
68386;SDS011;55338;43.062;25.624;2022-12-29T07:56:37;14.82;;;7.82;;
68386;SDS011;55338;43.062;25.624;2022-12-29T07:59:03;17.98;;;8.73;;
68386;SDS011;55338;43.062;25.624;2022-12-29T08:01:29;22.45;;;9.30;;
68386;SDS011;55338;43.062;25.624;2022-12-29T08:03:55;19.70;;;9.20;;
68386;SDS011;55338;43.062;25.624;2022-12-29T08:06:21;18.35;;;8.93;;
68386;SDS011;55338;43.062;25.624;2022-12-29T08:08:47;17.38;;;9.48;;
68386;SDS011;55338;43.062;25.624;2022-12-29T08:11:13;18.07;;;10.17;;
68386;SDS011;55338;43.062;25.624;2022-12-29T08:13:39;18.58;;;8.90;;
68386;SDS011;55338;43.062;25.624;2022-12-29T08:16:04;19.63;;;9.93;;
68386;SDS011;55338;43.062;25.624;2022-12-29T08:18:30;17.70;;;9.20;;
68386;SDS011;55338;43.062;25.624;2022-12-29T08:21:00;19.73;;;9.88;;
68386;SDS011;55338;43.062;25.624;2022-12-29T08:23:28;19.27;;;10.05;;
68386;SDS011;55338;43.062;25.624;2022-12-29T08:25:57;16.45;;;8.80;;
68386;SDS011;55338;43.062;25.624;2022-12-29T08:28:24;19.67;;;10.02;;
68386;SDS011;55338;43.062;25.624;2022-12-29T08:30:50;19.83;;;9.35;;
68386;SDS011;55338;43.062;25.624;2022-12-29T08:33:16;17.53;;;9.00;;
68386;SDS011;55338;43.062;25.624;2022-12-29T08:35:41;14.68;;;8.77;;
68386;SDS011;55338;43.062;25.624;2022-12-29T08:38:07;18.93;;;9.23;;
68386;SDS011;55338;43.062;25.624;2022-12-29T08:40:33;20.58;;;9.50;;
68386;SDS011;55338;43.062;25.624;2022-12-29T08:42:59;20.80;;;9.30;;
68386;SDS011;55338;43.062;25.624;2022-12-29T08:45:25;19.30;;;9.45;;
68386;SDS011;55338;43.062;25.624;2022-12-29T08:47:50;18.13;;;9.05;;
68386;SDS011;55338;43.062;25.624;2022-12-29T08:50:16;16.83;;;8.97;;
68386;SDS011;55338;43.062;25.624;2022-12-29T08:52:42;18.83;;;9.52;;
68386;SDS011;55338;43.062;25.624;2022-12-29T08:55:08;21.15;;;9.23;;
68386;SDS011;55338;43.062;25.624;2022-12-29T08:57:34;22.42;;;9.25;;
68386;SDS011;55338;43.062;25.624;2022-12-29T09:00:00;24.98;;;9.48;;
68386;SDS011;55338;43.062;25.624;2022-12-29T09:02:26;18.50;;;8.75;;
68386;SDS011;55338;43.062;25.624;2022-12-29T09:04:52;26.03;;;9.27;;
68386;SDS011;55338;43.062;25.624;2022-12-29T09:07:18;17.08;;;8.88;;
68386;SDS011;55338;43.062;25.624;2022-12-29T09:09:43;18.00;;;9.50;;
68386;SDS011;55338;43.062;25.624;2022-12-29T09:12:25;17.80;;;8.23;;
68386;SDS011;55338;43.062;25.624;2022-12-29T09:14:50;15.32;;;8.95;;
68386;SDS011;55338;43.062;25.624;2022-12-29T09:17:16;15.43;;;8.47;;
68386;SDS011;55338;43.062;25.624;2022-12-29T09:20:00;14.82;;;8.65;;
68386;SDS011;55338;43.062;25.624;2022-12-29T09:22:27;18.45;;;9.38;;
68386;SDS011;55338;43.062;25.624;2022-12-29T09:24:53;18.67;;;9.57;;
68386;SDS011;55338;43.062;25.624;2022-12-29T09:27:19;16.33;;;8.98;;
68386;SDS011;55338;43.062;25.624;2022-12-29T09:29:44;16.60;;;8.68;;
68386;SDS011;55338;43.062;25.624;2022-12-29T09:32:10;16.80;;;9.32;;
68386;SDS011;55338;43.062;25.624;2022-12-29T09:34:36;19.98;;;11.45;;
68386;SDS011;55338;43.062;25.624;2022-12-29T09:37:02;17.23;;;10.93;;
68386;SDS011;55338;43.062;25.624;2022-12-29T09:39:28;18.67;;;11.68;;
68386;SDS011;55338;43.062;25.624;2022-12-29T09:42:06;17.70;;;8.65;;
68386;SDS011;55338;43.062;25.624;2022-12-29T09:45:00;14.73;;;8.67;;
68386;SDS011;55338;43.062;25.624;2022-12-29T09:47:49;12.50;;;8.13;;
68386;SDS011;55338;43.062;25.624;2022-12-29T09:53:21;18.45;;;10.63;;
68386;SDS011;55338;43.062;25.624;2022-12-29T09:55:44;14.35;;;8.25;;
68386;SDS011;55338;43.062;25.624;2022-12-29T10:00:48;13.20;;;7.43;;
68386;SDS011;55338;43.062;25.624;2022-12-29T10:03:22;12.13;;;7.55;;
68386;SDS011;55338;43.062;25.624;2022-12-29T10:08:44;14.00;;;7.63;;
68386;SDS011;55338;43.062;25.624;2022-12-29T10:14:53;11.57;;;6.80;;
68386;SDS011;55338;43.062;25.624;2022-12-29T10:17:27;14.27;;;7.50;;
68386;SDS011;55338;43.062;25.624;2022-12-29T10:25:39;16.77;;;8.80;;
68386;SDS011;55338;43.062;25.624;2022-12-29T10:28:15;12.68;;;7.68;;
68386;SDS011;55338;43.062;25.624;2022-12-29T10:30:49;12.40;;;7.88;;
68386;SDS011;55338;43.062;25.624;2022-12-29T10:33:26;16.40;;;7.88;;
68386;SDS011;55338;43.062;25.624;2022-12-29T10:36:02;15.73;;;8.18;;
68386;SDS011;55338;43.062;25.624;2022-12-29T10:38:44;14.27;;;7.90;;
68386;SDS011;55338;43.062;25.624;2022-12-29T10:41:25;12.02;;;7.93;;
68386;SDS011;55338;43.062;25.624;2022-12-29T10:43:57;14.90;;;7.95;;
68386;SDS011;55338;43.062;25.624;2022-12-29T10:46:29;12.73;;;7.28;;
68386;SDS011;55338;43.062;25.624;2022-12-29T10:49:00;10.50;;;6.80;;
68386;SDS011;55338;43.062;25.624;2022-12-29T10:51:32;11.87;;;6.40;;
68386;SDS011;55338;43.062;25.624;2022-12-29T10:54:19;9.60;;;5.70;;
68386;SDS011;55338;43.062;25.624;2022-12-29T10:56:54;9.18;;;5.90;;
68386;SDS011;55338;43.062;25.624;2022-12-29T10:59:27;8.82;;;5.85;;
68386;SDS011;55338;43.062;25.624;2022-12-29T11:04:43;9.67;;;6.17;;
68386;SDS011;55338;43.062;25.624;2022-12-29T11:07:18;12.60;;;5.85;;
68386;SDS011;55338;43.062;25.624;2022-12-29T11:09:45;11.35;;;6.18;;
68386;SDS011;55338;43.062;25.624;2022-12-29T11:14:44;11.73;;;6.63;;
68386;SDS011;55338;43.062;25.624;2022-12-29T11:17:11;11.33;;;7.37;;
68386;SDS011;55338;43.062;25.624;2022-12-29T11:19:42;10.68;;;7.10;;
68386;SDS011;55338;43.062;25.624;2022-12-29T11:22:20;10.75;;;6.47;;
68386;SDS011;55338;43.062;25.624;2022-12-29T11:24:52;17.98;;;11.25;;
68386;SDS011;55338;43.062;25.624;2022-12-29T11:27:20;9.63;;;6.00;;
68386;SDS011;55338;43.062;25.624;2022-12-29T11:29:48;9.88;;;6.68;;
68386;SDS011;55338;43.062;25.624;2022-12-29T11:32:19;9.23;;;5.85;;
68386;SDS011;55338;43.062;25.624;2022-12-29T11:34:50;9.88;;;6.85;;
68386;SDS011;55338;43.062;25.624;2022-12-29T11:42:41;10.43;;;7.72;;
68386;SDS011;55338;43.062;25.624;2022-12-29T11:47:42;8.57;;;5.38;;
68386;SDS011;55338;43.062;25.624;2022-12-29T11:50:32;7.95;;;4.80;;
68386;SDS011;55338;43.062;25.624;2022-12-29T11:53:06;8.63;;;5.13;;
68386;SDS011;55338;43.062;25.624;2022-12-29T11:55:53;6.80;;;4.55;;
68386;SDS011;55338;43.062;25.624;2022-12-29T11:58:20;8.85;;;5.10;;
68386;SDS011;55338;43.062;25.624;2022-12-29T12:00:46;12.18;;;4.93;;
68386;SDS011;55338;43.062;25.624;2022-12-29T12:03:17;8.23;;;4.82;;
68386;SDS011;55338;43.062;25.624;2022-12-29T12:08:31;11.18;;;6.80;;
68386;SDS011;55338;43.062;25.624;2022-12-29T12:16:53;8.82;;;6.38;;
68386;SDS011;55338;43.062;25.624;2022-12-29T12:22:01;33.40;;;8.20;;
68386;SDS011;55338;43.062;25.624;2022-12-29T12:24:42;16.15;;;7.38;;
68386;SDS011;55338;43.062;25.624;2022-12-29T12:27:21;12.32;;;8.68;;
68386;SDS011;55338;43.062;25.624;2022-12-29T12:30:03;11.18;;;6.10;;
68386;SDS011;55338;43.062;25.624;2022-12-29T12:35:46;11.85;;;8.07;;
68386;SDS011;55338;43.062;25.624;2022-12-29T12:41:05;7.18;;;5.28;;
68386;SDS011;55338;43.062;25.624;2022-12-29T13:18:31;8.75;;;5.25;;
68386;SDS011;55338;43.062;25.624;2022-12-29T13:21:25;13.10;;;5.85;;
68386;SDS011;55338;43.062;25.624;2022-12-29T13:24:07;11.20;;;6.20;;
68386;SDS011;55338;43.062;25.624;2022-12-29T13:26:47;13.33;;;6.07;;
68386;SDS011;55338;43.062;25.624;2022-12-29T13:29:23;14.00;;;6.40;;
68386;SDS011;55338;43.062;25.624;2022-12-29T13:31:57;10.05;;;5.80;;
68386;SDS011;55338;43.062;25.624;2022-12-29T13:37:11;15.23;;;7.57;;
68386;SDS011;55338;43.062;25.624;2022-12-29T13:39:45;17.45;;;7.68;;
68386;SDS011;55338;43.062;25.624;2022-12-29T13:42:16;23.48;;;7.45;;
68386;SDS011;55338;43.062;25.624;2022-12-29T13:44:48;18.17;;;6.47;;
68386;SDS011;55338;43.062;25.624;2022-12-29T13:49:54;33.83;;;16.08;;
68386;SDS011;55338;43.062;25.624;2022-12-29T13:52:29;21.83;;;11.50;;
68386;SDS011;55338;43.062;25.624;2022-12-29T14:00:18;16.77;;;8.03;;
68386;SDS011;55338;43.062;25.624;2022-12-29T14:07:47;42.78;;;9.10;;
68386;SDS011;55338;43.062;25.624;2022-12-29T14:10:28;71.88;;;10.35;;
68386;SDS011;55338;43.062;25.624;2022-12-29T14:15:38;25.48;;;8.73;;
68386;SDS011;55338;43.062;25.624;2022-12-29T14:20:46;28.95;;;9.52;;
68386;SDS011;55338;43.062;25.624;2022-12-29T14:28:32;61.30;;;14.95;;
68386;SDS011;55338;43.062;25.624;2022-12-29T14:33:41;47.20;;;11.25;;
68386;SDS011;55338;43.062;25.624;2022-12-29T14:44:33;42.53;;;10.07;;
68386;SDS011;55338;43.062;25.624;2022-12-29T14:47:11;35.42;;;11.80;;
68386;SDS011;55338;43.062;25.624;2022-12-29T14:49:50;23.38;;;8.32;;
68386;SDS011;55338;43.062;25.624;2022-12-29T14:52:18;22.27;;;8.77;;
68386;SDS011;55338;43.062;25.624;2022-12-29T14:54:49;14.93;;;7.10;;
68386;SDS011;55338;43.062;25.624;2022-12-29T15:00:01;19.42;;;7.97;;
68386;SDS011;55338;43.062;25.624;2022-12-29T15:02:36;20.85;;;8.45;;
68386;SDS011;55338;43.062;25.624;2022-12-29T15:05:05;21.20;;;8.95;;
68386;SDS011;55338;43.062;25.624;2022-12-29T15:07:58;21.38;;;9.35;;
68386;SDS011;55338;43.062;25.624;2022-12-29T15:10:25;24.90;;;9.93;;
68386;SDS011;55338;43.062;25.624;2022-12-29T15:13:00;23.45;;;9.15;;
68386;SDS011;55338;43.062;25.624;2022-12-29T15:15:38;16.30;;;8.00;;
68386;SDS011;55338;43.062;25.624;2022-12-29T15:18:15;24.53;;;8.27;;
68386;SDS011;55338;43.062;25.624;2022-12-29T15:20:54;15.20;;;7.22;;
68386;SDS011;55338;43.062;25.624;2022-12-29T15:23:25;15.50;;;7.55;;
68386;SDS011;55338;43.062;25.624;2022-12-29T15:25:55;22.10;;;8.52;;
68386;SDS011;55338;43.062;25.624;2022-12-29T15:28:23;17.80;;;7.88;;
68386;SDS011;55338;43.062;25.624;2022-12-29T15:31:03;21.67;;;7.68;;
68386;SDS011;55338;43.062;25.624;2022-12-29T15:33:31;15.65;;;7.55;;
68386;SDS011;55338;43.062;25.624;2022-12-29T15:36:05;18.50;;;8.13;;
68386;SDS011;55338;43.062;25.624;2022-12-29T15:38:39;21.33;;;7.57;;
68386;SDS011;55338;43.062;25.624;2022-12-29T15:41:06;18.55;;;7.18;;
68386;SDS011;55338;43.062;25.624;2022-12-29T15:46:31;15.38;;;7.75;;
68386;SDS011;55338;43.062;25.624;2022-12-29T15:48:57;13.48;;;7.20;;
68386;SDS011;55338;43.062;25.624;2022-12-29T15:53:54;19.33;;;7.47;;
68386;SDS011;55338;43.062;25.624;2022-12-29T15:56:20;16.00;;;6.93;;
68386;SDS011;55338;43.062;25.624;2022-12-29T15:58:48;16.00;;;7.43;;
68386;SDS011;55338;43.062;25.624;2022-12-29T16:01:32;21.55;;;8.70;;
68386;SDS011;55338;43.062;25.624;2022-12-29T16:04:00;17.00;;;7.40;;
68386;SDS011;55338;43.062;25.624;2022-12-29T16:09:00;18.33;;;7.78;;
68386;SDS011;55338;43.062;25.624;2022-12-29T16:14:13;18.08;;;7.78;;
68386;SDS011;55338;43.062;25.624;2022-12-29T16:16:45;20.55;;;8.35;;
68386;SDS011;55338;43.062;25.624;2022-12-29T16:22:00;18.33;;;7.45;;
68386;SDS011;55338;43.062;25.624;2022-12-29T16:24:29;20.98;;;8.55;;
68386;SDS011;55338;43.062;25.624;2022-12-29T16:26:59;17.08;;;8.35;;
68386;SDS011;55338;43.062;25.624;2022-12-29T16:29:32;18.17;;;8.30;;
68386;SDS011;55338;43.062;25.624;2022-12-29T16:31:59;24.73;;;7.93;;
68386;SDS011;55338;43.062;25.624;2022-12-29T16:37:03;31.38;;;8.85;;
68386;SDS011;55338;43.062;25.624;2022-12-29T16:39:49;32.38;;;9.38;;
68386;SDS011;55338;43.062;25.624;2022-12-29T16:42:33;27.47;;;8.90;;
68386;SDS011;55338;43.062;25.624;2022-12-29T16:45:12;28.58;;;9.13;;
68386;SDS011;55338;43.062;25.624;2022-12-29T16:47:49;21.90;;;7.88;;
68386;SDS011;55338;43.062;25.624;2022-12-29T16:50:31;17.25;;;8.18;;
68386;SDS011;55338;43.062;25.624;2022-12-29T16:53:00;25.90;;;8.87;;
68386;SDS011;55338;43.062;25.624;2022-12-29T16:55:28;29.58;;;9.10;;
68386;SDS011;55338;43.062;25.624;2022-12-29T16:57:54;27.67;;;8.30;;
68386;SDS011;55338;43.062;25.624;2022-12-29T17:00:23;38.22;;;8.75;;
68386;SDS011;55338;43.062;25.624;2022-12-29T17:02:50;25.50;;;9.48;;
68386;SDS011;55338;43.062;25.624;2022-12-29T17:05:19;25.43;;;9.03;;
68386;SDS011;55338;43.062;25.624;2022-12-29T17:07:45;38.25;;;9.43;;
68386;SDS011;55338;43.062;25.624;2022-12-29T17:10:12;38.25;;;9.75;;
68386;SDS011;55338;43.062;25.624;2022-12-29T17:12:39;33.50;;;9.95;;
68386;SDS011;55338;43.062;25.624;2022-12-29T17:17:42;38.80;;;10.57;;
68386;SDS011;55338;43.062;25.624;2022-12-29T17:20:17;42.58;;;10.52;;
68386;SDS011;55338;43.062;25.624;2022-12-29T17:22:44;46.42;;;8.70;;
68386;SDS011;55338;43.062;25.624;2022-12-29T17:25:11;28.25;;;7.63;;
68386;SDS011;55338;43.062;25.624;2022-12-29T17:27:43;25.73;;;8.50;;
68386;SDS011;55338;43.062;25.624;2022-12-29T17:30:22;24.27;;;9.47;;
68386;SDS011;55338;43.062;25.624;2022-12-29T17:32:57;17.50;;;8.23;;